Time;durP1;ratioP1;P1;durP2;ratioP2;P2;SDS_P1;SDS_P2;PMS_P1;PMS_P2;Temp;Humidity;BMP_temperature;BMP_pressure;BME280_temperature;BME280_humidity;BME280_pressure;Samples;Min_cycle;Max_cycle;Signal;HPM_P1;HPM_P2
2023/02/26 00:00:25;;;;;;;3.17;2.45;;;;;;;;;;5099637;28;20020;-86
2023/02/26 00:02:51;;;;;;;4.78;3.03;;;;;;;;;;5099325;28;20406;-85
2023/02/26 00:05:17;;;;;;;7.45;3.17;;;;;;;;;;5099219;28;20032;-86
2023/02/26 00:07:43;;;;;;;3.65;2.47;;;;;;;;;;5098182;28;20401;-86
2023/02/26 00:10:11;;;;;;;4.22;2.70;;;;;;;;;;5099242;28;20020;-86
2023/02/26 00:12:37;;;;;;;4.35;2.45;;;;;;;;;;5099531;28;20023;-86
2023/02/26 00:15:21;;;;;;;3.03;2.10;;;;;;;;;;5098757;28;20024;-84
2023/02/26 00:17:55;;;;;;;3.75;2.20;;;;;;;;;;5099129;28;20028;-85
2023/02/26 00:20:21;;;;;;;6.30;3.50;;;;;;;;;;5081352;28;20051;-86
2023/02/26 00:22:47;;;;;;;4.95;3.17;;;;;;;;;;5098986;28;20119;-86
2023/02/26 00:25:13;;;;;;;3.60;2.80;;;;;;;;;;5099290;28;20035;-86
2023/02/26 00:27:40;;;;;;;4.35;2.65;;;;;;;;;;5080945;28;20047;-85
2023/02/26 00:30:07;;;;;;;4.75;3.38;;;;;;;;;;5081131;28;20024;-86
2023/02/26 00:32:34;;;;;;;3.10;1.90;;;;;;;;;;5097624;28;20035;-86
2023/02/26 00:35:00;;;;;;;2.45;1.48;;;;;;;;;;5097849;28;20051;-87
2023/02/26 00:37:45;;;;;;;2.83;1.65;;;;;;;;;;5099750;28;20394;-87
2023/02/26 00:40:17;;;;;;;1.45;1.10;;;;;;;;;;5098763;28;20024;-88
2023/02/26 00:42:43;;;;;;;2.80;1.95;;;;;;;;;;5080898;28;20047;-90
2023/02/26 00:45:10;;;;;;;1.40;1.20;;;;;;;;;;5098847;28;20026;-87
2023/02/26 00:47:48;;;;;;;1.98;1.10;;;;;;;;;;5080472;28;20063;-87
2023/02/26 00:50:14;;;;;;;1.88;1.30;;;;;;;;;;5098946;28;20030;-87
2023/02/26 00:52:40;;;;;;;2.60;1.27;;;;;;;;;;5080878;28;20028;-87
2023/02/26 00:55:06;;;;;;;1.27;1.10;;;;;;;;;;5098151;28;20048;-87
2023/02/26 00:57:32;;;;;;;1.30;0.90;;;;;;;;;;5098452;28;20024;-87
2023/02/26 01:03:02;;;;;;;2.25;1.13;;;;;;;;;;5077992;28;20043;-87
2023/02/26 01:05:28;;;;;;;2.42;1.10;;;;;;;;;;5086207;28;20046;-87
2023/02/26 01:08:01;;;;;;;1.30;1.20;;;;;;;;;;5098195;28;20016;-85
2023/02/26 01:10:28;;;;;;;1.35;1.25;;;;;;;;;;5098452;28;20087;-87
2023/02/26 01:12:55;;;;;;;3.30;2.00;;;;;;;;;;5096917;28;20036;-88
2023/02/26 01:15:22;;;;;;;2.28;1.50;;;;;;;;;;5090587;28;20378;-89
2023/02/26 01:17:54;;;;;;;2.85;1.35;;;;;;;;;;5082690;28;20082;-89
2023/02/26 01:20:27;;;;;;;2.13;1.40;;;;;;;;;;5078745;28;20437;-89
2023/02/26 01:22:55;;;;;;;3.15;2.85;;;;;;;;;;5098117;28;20032;-89
2023/02/26 01:25:21;;;;;;;8.73;7.82;;;;;;;;;;5097976;28;20030;-89
2023/02/26 01:27:47;;;;;;;4.30;3.90;;;;;;;;;;5076634;28;20103;-88
2023/02/26 01:30:13;;;;;;;6.00;5.40;;;;;;;;;;5095863;28;20032;-88
2023/02/26 01:32:44;;;;;;;6.68;5.35;;;;;;;;;;5096639;28;20028;-89
2023/02/26 01:35:30;;;;;;;2.63;1.90;;;;;;;;;;5097935;28;20048;-89
2023/02/26 01:38:26;;;;;;;4.50;3.80;;;;;;;;;;5098144;28;20089;-89
2023/02/26 01:41:01;;;;;;;3.78;2.97;;;;;;;;;;5095729;28;20032;-89
2023/02/26 01:43:33;;;;;;;3.70;2.65;;;;;;;;;;5096764;28;20024;-89
2023/02/26 01:48:49;;;;;;;5.55;2.60;;;;;;;;;;5097852;28;19912;-88
2023/02/26 01:51:15;;;;;;;4.88;3.60;;;;;;;;;;5097717;28;20020;-88
2023/02/26 01:53:41;;;;;;;5.65;4.00;;;;;;;;;;5097675;28;20052;-89
2023/02/26 01:56:16;;;;;;;5.72;3.40;;;;;;;;;;5085835;28;20056;-89
2023/02/26 01:58:43;;;;;;;8.40;6.43;;;;;;;;;;5098091;28;20031;-88
2023/02/26 02:04:14;;;;;;;7.22;4.53;;;;;;;;;;5097513;28;20044;-88
2023/02/26 02:06:40;;;;;;;6.53;4.65;;;;;;;;;;5097730;28;20024;-88
2023/02/26 02:09:07;;;;;;;3.53;2.20;;;;;;;;;;5098154;28;20027;-88
2023/02/26 02:11:34;;;;;;;2.55;2.05;;;;;;;;;;5097473;28;20036;-89
2023/02/26 02:20:10;;;;;;;2.97;2.15;;;;;;;;;;5097672;28;20023;-91
2023/02/26 02:22:49;;;;;;;3.70;2.50;;;;;;;;;;5097460;28;20032;-89
2023/02/26 02:25:35;;;;;;;2.95;2.22;;;;;;;;;;5097706;28;20029;-91
2023/02/26 02:28:13;;;;;;;3.05;2.17;;;;;;;;;;5097757;28;20020;-91
2023/02/26 02:31:14;;;;;;;3.60;2.70;;;;;;;;;;5099890;28;20024;-90
2023/02/26 02:33:47;;;;;;;3.65;2.80;;;;;;;;;;5039326;28;20025;-91
2023/02/26 02:36:24;;;;;;;3.33;2.97;;;;;;;;;;5022599;28;20029;-91
2023/02/26 02:38:55;;;;;;;4.03;3.20;;;;;;;;;;5022677;28;20083;-91
2023/02/26 02:41:44;;;;;;;6.22;3.75;;;;;;;;;;5039102;28;20205;-92
2023/02/26 02:44:13;;;;;;;5.35;3.47;;;;;;;;;;4999708;28;20039;-91
2023/02/26 02:46:41;;;;;;;4.70;3.00;;;;;;;;;;4999904;28;20034;-91
2023/02/26 02:49:10;;;;;;;4.50;3.25;;;;;;;;;;4999676;28;20113;-91
2023/02/26 02:51:41;;;;;;;3.63;2.90;;;;;;;;;;4999643;28;20434;-90
2023/02/26 02:54:16;;;;;;;3.40;2.97;;;;;;;;;;4979782;28;20059;-91
2023/02/26 02:56:51;;;;;;;5.43;3.13;;;;;;;;;;4980238;28;20114;-92
2023/02/26 03:05:24;;;;;;;4.40;3.22;;;;;;;;;;4961070;29;20058;-90
2023/02/26 03:07:53;;;;;;;4.18;2.75;;;;;;;;;;4994626;28;20042;-90
2023/02/26 03:10:19;;;;;;;3.55;3.00;;;;;;;;;;5035321;28;20022;-91
2023/02/26 03:12:45;;;;;;;3.42;2.95;;;;;;;;;;5018844;28;20092;-91
2023/02/26 03:15:12;;;;;;;3.70;2.90;;;;;;;;;;5018732;28;20041;-90
2023/02/26 03:17:50;;;;;;;3.90;3.03;;;;;;;;;;5018674;28;20404;-90
2023/02/26 03:20:29;;;;;;;5.05;3.78;;;;;;;;;;5050730;28;20041;-90
2023/02/26 03:23:01;;;;;;;4.03;3.45;;;;;;;;;;5080225;28;20040;-90
2023/02/26 03:25:42;;;;;;;3.63;2.90;;;;;;;;;;5062684;28;20111;-90
2023/02/26 03:28:26;;;;;;;3.53;3.22;;;;;;;;;;5062281;28;20031;-90
2023/02/26 03:37:38;;;;;;;3.55;3.22;;;;;;;;;;5085777;28;20415;-90
2023/02/26 03:40:07;;;;;;;3.58;3.00;;;;;;;;;;4982452;28;20539;-89
2023/02/26 03:42:40;;;;;;;3.38;3.08;;;;;;;;;;4982325;28;20546;-90
2023/02/26 03:51:40;;;;;;;4.15;2.95;;;;;;;;;;4998771;28;20038;-90
2023/02/26 03:54:23;;;;;;;3.30;2.88;;;;;;;;;;4998253;28;20436;-89
2023/02/26 03:56:49;;;;;;;3.60;2.90;;;;;;;;;;4998412;28;20034;-88
2023/02/26 03:59:16;;;;;;;3.42;3.03;;;;;;;;;;4982092;28;20027;-90
2023/02/26 04:04:56;;;;;;;4.03;3.22;;;;;;;;;;4998272;28;20107;-89
2023/02/26 04:07:23;;;;;;;3.65;2.90;;;;;;;;;;4982010;28;20449;-89
2023/02/26 04:09:50;;;;;;;3.90;2.88;;;;;;;;;;5007646;28;20034;-89
2023/02/26 04:12:20;;;;;;;3.83;3.25;;;;;;;;;;5099361;28;20047;-90
2023/02/26 04:14:46;;;;;;;5.38;3.65;;;;;;;;;;5099328;28;20069;-89
2023/02/26 04:17:12;;;;;;;3.47;2.88;;;;;;;;;;5081178;28;20030;-89
2023/02/26 04:19:38;;;;;;;4.88;3.10;;;;;;;;;;5081206;28;20111;-89
2023/02/26 04:22:04;;;;;;;3.70;2.85;;;;;;;;;;5099323;28;20028;-87
2023/02/26 04:24:30;;;;;;;3.88;2.92;;;;;;;;;;5099007;28;20030;-87
2023/02/26 04:26:56;;;;;;;3.58;2.75;;;;;;;;;;5099171;28;20028;-88
2023/02/26 04:29:22;;;;;;;3.80;2.90;;;;;;;;;;5098953;28;20024;-88
2023/02/26 04:31:48;;;;;;;4.07;2.80;;;;;;;;;;5099191;28;20016;-88
2023/02/26 04:34:14;;;;;;;4.55;2.60;;;;;;;;;;5080959;28;20127;-89
2023/02/26 04:36:41;;;;;;;3.22;2.80;;;;;;;;;;5098751;28;20070;-88
2023/02/26 04:39:09;;;;;;;4.57;3.17;;;;;;;;;;5098955;28;20024;-87
2023/02/26 04:41:35;;;;;;;4.38;3.20;;;;;;;;;;5098829;28;20032;-90
2023/02/26 04:44:02;;;;;;;3.60;3.00;;;;;;;;;;5098976;28;20028;-90
2023/02/26 04:49:31;;;;;;;;;;;;;;;;;;5099285;28;20424;-89
2023/02/26 04:51:58;;;;;;;4.82;3.38;;;;;;;;;;5080484;28;19907;-90
2023/02/26 04:54:24;;;;;;;4.78;3.15;;;;;;;;;;5097997;28;20098;-90
2023/02/26 04:56:50;;;;;;;4.72;3.63;;;;;;;;;;5098789;28;20020;-89
2023/02/26 04:59:16;;;;;;;3.60;3.13;;;;;;;;;;5098559;28;20335;-90
2023/02/26 05:04:45;;;;;;;5.97;3.42;;;;;;;;;;5098464;28;20051;-89
2023/02/26 05:07:11;;;;;;;4.60;3.47;;;;;;;;;;5099274;28;20023;-90
2023/02/26 05:09:37;;;;;;;4.45;3.53;;;;;;;;;;5098750;28;20046;-90
2023/02/26 05:12:03;;;;;;;3.90;3.50;;;;;;;;;;5098311;28;20085;-90
2023/02/26 05:14:29;;;;;;;4.35;3.38;;;;;;;;;;5098050;28;20409;-89
2023/02/26 05:19:59;;;;;;;4.57;3.17;;;;;;;;;;5098353;28;20103;-91
2023/02/26 05:22:26;;;;;;;5.55;3.53;;;;;;;;;;5098242;28;20028;-90
2023/02/26 05:24:52;;;;;;;4.82;3.50;;;;;;;;;;5098343;28;20413;-91
2023/02/26 05:27:18;;;;;;;5.32;3.45;;;;;;;;;;5080367;28;20020;-89
2023/02/26 05:29:44;;;;;;;3.92;3.35;;;;;;;;;;5097815;28;20024;-88
2023/02/26 05:32:11;;;;;;;4.25;3.15;;;;;;;;;;5080136;28;20405;-87
2023/02/26 05:34:37;;;;;;;5.18;3.78;;;;;;;;;;5080098;28;20028;-88
2023/02/26 05:37:03;;;;;;;4.90;3.10;;;;;;;;;;5098168;28;20343;-88
2023/02/26 05:39:29;;;;;;;4.45;3.30;;;;;;;;;;5097933;28;20028;-88
2023/02/26 05:41:55;;;;;;;3.50;3.20;;;;;;;;;;5080254;28;20119;-88
2023/02/26 05:44:22;;;;;;;4.60;2.90;;;;;;;;;;5098033;28;20170;-87
2023/02/26 05:46:48;;;;;;;4.88;3.13;;;;;;;;;;5097925;28;20024;-88
2023/02/26 05:49:14;;;;;;;5.57;2.95;;;;;;;;;;5097832;28;20111;-87
2023/02/26 05:51:41;;;;;;;4.65;3.10;;;;;;;;;;5098023;28;20040;-90
2023/02/26 05:54:08;;;;;;;3.90;2.78;;;;;;;;;;5097519;28;20056;-90
2023/02/26 05:56:34;;;;;;;5.43;3.50;;;;;;;;;;5098054;28;20027;-90
2023/02/26 05:59:00;;;;;;;9.57;4.70;;;;;;;;;;5097400;28;20433;-90
2023/02/26 06:01:26;;;;;;;7.32;3.78;;;;;;;;;;5080015;28;20020;-91
2023/02/26 06:03:52;;;;;;;6.63;3.33;;;;;;;;;;5097883;28;20032;-88
2023/02/26 06:06:18;;;;;;;4.45;3.00;;;;;;;;;;5101389;28;20024;-89
2023/02/26 06:08:45;;;;;;;4.20;2.58;;;;;;;;;;5083904;28;20023;-88
2023/02/26 06:11:11;;;;;;;6.25;3.47;;;;;;;;;;5101646;28;20398;-89
2023/02/26 06:13:37;;;;;;;5.15;3.38;;;;;;;;;;5083721;28;20162;-88
2023/02/26 06:16:03;;;;;;;5.93;3.60;;;;;;;;;;5101886;28;20036;-88
2023/02/26 06:18:31;;;;;;;3.53;2.65;;;;;;;;;;5083135;28;20068;-89
2023/02/26 06:20:57;;;;;;;4.85;3.40;;;;;;;;;;5101876;28;20028;-89
2023/02/26 06:23:24;;;;;;;4.20;3.33;;;;;;;;;;5101756;28;20077;-89
2023/02/26 06:25:51;;;;;;;6.32;3.70;;;;;;;;;;5083645;28;20061;-89
2023/02/26 06:28:17;;;;;;;4.70;3.72;;;;;;;;;;5101729;28;20326;-89
2023/02/26 06:31:20;;;;;;;6.72;4.15;;;;;;;;;;5101518;28;20338;-90
2023/02/26 06:33:46;;;;;;;;;;;;;;;;;;5101530;28;20039;-89
2023/02/26 06:36:12;;;;;;;12.38;6.32;;;;;;;;;;5117200;28;19904;-89
2023/02/26 06:38:38;;;;;;;6.78;4.97;;;;;;;;;;5101177;28;20020;-89
2023/02/26 06:41:04;;;;;;;7.43;5.65;;;;;;;;;;5100789;28;20024;-89
2023/02/26 06:43:30;;;;;;;9.85;6.32;;;;;;;;;;5100925;28;20402;-90
2023/02/26 06:49:37;;;;;;;9.82;6.97;;;;;;;;;;5100505;28;20431;-89
2023/02/26 06:52:03;;;;;;;14.73;8.15;;;;;;;;;;5100612;28;20032;-89
2023/02/26 06:54:29;;;;;;;16.75;10.05;;;;;;;;;;5100612;28;20109;-88
2023/02/26 06:56:56;;;;;;;16.55;10.02;;;;;;;;;;5101432;28;20028;-89
2023/02/26 06:59:23;;;;;;;11.13;6.75;;;;;;;;;;5100594;28;20055;-90
2023/02/26 07:01:49;;;;;;;12.93;7.25;;;;;;;;;;5099188;28;20039;-90
2023/02/26 07:04:15;;;;;;;11.18;7.47;;;;;;;;;;5100766;28;20024;-90
2023/02/26 07:06:41;;;;;;;11.15;7.05;;;;;;;;;;5100572;28;20036;-90
2023/02/26 07:09:07;;;;;;;17.77;10.75;;;;;;;;;;5100639;28;20032;-90
2023/02/26 07:11:33;;;;;;;25.75;15.00;;;;;;;;;;5100365;28;20031;-88
2023/02/26 07:14:00;;;;;;;25.35;14.75;;;;;;;;;;5100186;28;20024;-89
2023/02/26 07:16:26;;;;;;;17.65;12.13;;;;;;;;;;5100129;28;20057;-88
2023/02/26 07:18:52;;;;;;;13.95;9.07;;;;;;;;;;5082400;28;20036;-91
2023/02/26 07:21:18;;;;;;;13.68;8.98;;;;;;;;;;5082394;28;20114;-86
2023/02/26 07:23:44;;;;;;;22.65;15.77;;;;;;;;;;5081982;28;20063;-90
2023/02/26 07:26:10;;;;;;;18.90;11.95;;;;;;;;;;5099744;28;20020;-89
2023/02/26 07:28:37;;;;;;;17.13;9.38;;;;;;;;;;5099743;28;20020;-89
2023/02/26 07:34:21;;;;;;;11.55;7.97;;;;;;;;;;5080057;28;20031;-89
2023/02/26 07:36:47;;;;;;;15.07;10.43;;;;;;;;;;5080030;28;20017;-89
2023/02/26 07:39:13;;;;;;;16.02;11.52;;;;;;;;;;5080094;28;20020;-90
2023/02/26 07:41:39;;;;;;;15.88;9.15;;;;;;;;;;5079702;28;20024;-90
2023/02/26 07:44:06;;;;;;;12.63;8.80;;;;;;;;;;5072170;28;20232;-90
2023/02/26 07:52:39;;;;;;;12.40;8.38;;;;;;;;;;5099564;28;20039;-91
2023/02/26 07:55:05;;;;;;;12.95;8.57;;;;;;;;;;5099189;28;20091;-89
2023/02/26 07:57:31;;;;;;;13.57;8.57;;;;;;;;;;5080359;28;20067;-89
2023/02/26 07:59:58;;;;;;;13.60;8.25;;;;;;;;;;5096577;28;20028;-90
2023/02/26 08:02:52;;;;;;;11.85;7.90;;;;;;;;;;5099309;28;20040;-89
2023/02/26 08:05:18;;;;;;;12.20;9.27;;;;;;;;;;5099339;28;20384;-92
2023/02/26 08:07:44;;;;;;;11.70;8.07;;;;;;;;;;5099475;28;20107;-91
2023/02/26 08:10:10;;;;;;;12.13;8.32;;;;;;;;;;5099433;28;20020;-92
2023/02/26 08:12:36;;;;;;;12.75;8.13;;;;;;;;;;5099394;28;20325;-92
2023/02/26 08:15:04;;;;;;;16.88;9.80;;;;;;;;;;5099669;28;20157;-90
2023/02/26 08:18:07;;;;;;;16.52;10.48;;;;;;;;;;5099681;28;20028;-90
2023/02/26 08:20:34;;;;;;;16.88;10.48;;;;;;;;;;5078820;28;20052;-88
2023/02/26 08:23:00;;;;;;;15.00;8.70;;;;;;;;;;5078822;28;20361;-89
2023/02/26 08:25:26;;;;;;;12.25;9.27;;;;;;;;;;5078435;28;20410;-89
2023/02/26 08:27:52;;;;;;;15.30;9.20;;;;;;;;;;5085488;28;20023;-88
2023/02/26 08:30:19;;;;;;;15.68;9.65;;;;;;;;;;5098873;28;20103;-87
2023/02/26 08:32:45;;;;;;;13.45;9.25;;;;;;;;;;5098623;28;20467;-87
2023/02/26 08:35:11;;;;;;;14.55;10.50;;;;;;;;;;5096101;28;20357;-87
2023/02/26 08:37:38;;;;;;;19.35;12.10;;;;;;;;;;5097169;28;20020;-88
2023/02/26 08:40:05;;;;;;;13.57;9.00;;;;;;;;;;5098457;28;20317;-87
2023/02/26 08:42:31;;;;;;;11.15;8.73;;;;;;;;;;5098349;28;20044;-87
2023/02/26 08:44:57;;;;;;;10.63;8.00;;;;;;;;;;5079801;28;20325;-87
2023/02/26 08:47:23;;;;;;;12.52;8.85;;;;;;;;;;5098355;28;20103;-87
2023/02/26 08:49:49;;;;;;;14.05;9.93;;;;;;;;;;5080671;28;20028;-86
2023/02/26 08:52:15;;;;;;;11.30;8.65;;;;;;;;;;5086828;28;20034;-86
2023/02/26 08:54:41;;;;;;;9.52;7.55;;;;;;;;;;5098263;28;20157;-86
2023/02/26 08:57:08;;;;;;;10.00;8.02;;;;;;;;;;5097925;28;20028;-87
2023/02/26 08:59:34;;;;;;;12.40;8.38;;;;;;;;;;5098065;28;20070;-87
2023/02/26 09:02:00;;;;;;;11.65;8.40;;;;;;;;;;5097251;28;20035;-87
2023/02/26 09:04:27;;;;;;;10.57;7.80;;;;;;;;;;5097897;28;20024;-86
2023/02/26 09:06:53;;;;;;;11.05;8.18;;;;;;;;;;5090372;28;20016;-86
2023/02/26 09:09:20;;;;;;;12.00;8.10;;;;;;;;;;5091863;28;20035;-88
2023/02/26 09:11:46;;;;;;;16.15;9.77;;;;;;;;;;5097702;28;20065;-87
2023/02/26 09:14:12;;;;;;;10.68;7.10;;;;;;;;;;5079705;28;20083;-87
2023/02/26 09:16:38;;;;;;;11.07;7.75;;;;;;;;;;5097723;28;20031;-88
2023/02/26 09:19:05;;;;;;;9.95;6.72;;;;;;;;;;5079785;28;20428;-89
2023/02/26 09:21:32;;;;;;;14.77;8.30;;;;;;;;;;5079613;28;20036;-89
2023/02/26 09:23:58;;;;;;;11.68;7.60;;;;;;;;;;5097682;28;20032;-85
2023/02/26 09:26:24;;;;;;;13.27;9.75;;;;;;;;;;5097998;28;20032;-86
2023/02/26 09:28:50;;;;;;;12.68;8.70;;;;;;;;;;5097326;28;20032;-86
2023/02/26 09:31:16;;;;;;;14.55;8.90;;;;;;;;;;5097352;28;20312;-87
2023/02/26 09:33:42;;;;;;;11.52;8.00;;;;;;;;;;5079956;28;20056;-86
2023/02/26 09:36:09;;;;;;;10.48;7.90;;;;;;;;;;5097388;28;20055;-87
2023/02/26 09:38:35;;;;;;;10.85;8.05;;;;;;;;;;5097647;28;20287;-86
2023/02/26 09:41:01;;;;;;;9.23;7.47;;;;;;;;;;5078975;28;20078;-87
2023/02/26 09:43:42;;;;;;;11.85;7.80;;;;;;;;;;5097278;28;20046;-86
2023/02/26 09:46:19;;;;;;;13.57;9.77;;;;;;;;;;5085497;28;20034;-87
2023/02/26 09:48:47;;;;;;;13.95;9.05;;;;;;;;;;5097412;28;20051;-88
2023/02/26 09:51:17;;;;;;;12.85;8.10;;;;;;;;;;5078749;28;20028;-87
2023/02/26 09:53:43;;;;;;;8.98;6.47;;;;;;;;;;5106481;28;20069;-87
2023/02/26 09:56:32;;;;;;;7.78;6.38;;;;;;;;;;5097413;28;20066;-86
2023/02/26 09:58:58;;;;;;;9.73;7.38;;;;;;;;;;5096978;28;20028;-88
2023/02/26 10:04:40;;;;;;;8.20;5.95;;;;;;;;;;5097162;28;20085;-87
2023/02/26 10:07:07;;;;;;;8.98;4.97;;;;;;;;;;5079408;28;20064;-87
2023/02/26 10:09:36;;;;;;;8.25;5.55;;;;;;;;;;5079085;28;20034;-86
2023/02/26 10:12:10;;;;;;;9.18;6.90;;;;;;;;;;5103512;28;20026;-87
2023/02/26 10:14:42;;;;;;;9.50;6.57;;;;;;;;;;5099704;28;20032;-86
2023/02/26 10:17:15;;;;;;;11.02;6.68;;;;;;;;;;5116403;28;20024;-87
2023/02/26 10:19:43;;;;;;;8.95;6.95;;;;;;;;;;5104687;28;20036;-87
2023/02/26 10:22:42;;;;;;;9.25;6.25;;;;;;;;;;5111906;28;20410;-86
2023/02/26 10:25:21;;;;;;;8.32;6.00;;;;;;;;;;4979075;28;20038;-87
2023/02/26 10:27:57;;;;;;;9.77;6.80;;;;;;;;;;4995145;28;20046;-86
2023/02/26 10:30:24;;;;;;;8.85;6.40;;;;;;;;;;5016929;28;20166;-87
2023/02/26 10:32:52;;;;;;;7.20;5.43;;;;;;;;;;4994516;28;20030;-87
2023/02/26 10:35:20;;;;;;;11.63;8.25;;;;;;;;;;4982005;28;20125;-84
2023/02/26 10:37:51;;;;;;;13.35;8.40;;;;;;;;;;4980853;28;20038;-85
2023/02/26 10:40:20;;;;;;;9.32;6.32;;;;;;;;;;5007946;28;20026;-86
2023/02/26 10:43:00;;;;;;;10.80;7.25;;;;;;;;;;5010136;28;20041;-84
2023/02/26 10:45:32;;;;;;;12.55;7.95;;;;;;;;;;4982226;28;20026;-86
2023/02/26 10:51:08;;;;;;;7.20;5.60;;;;;;;;;;4997025;28;20431;-86
2023/02/26 10:53:34;;;;;;;7.75;5.38;;;;;;;;;;4994562;28;20051;-85
2023/02/26 10:56:23;;;;;;;11.18;6.82;;;;;;;;;;4996612;28;20077;-86
2023/02/26 10:58:50;;;;;;;9.95;6.75;;;;;;;;;;4938080;29;20071;-86
2023/02/26 11:01:18;;;;;;;9.77;7.20;;;;;;;;;;4968866;28;20039;-85
2023/02/26 11:03:46;;;;;;;12.07;7.20;;;;;;;;;;4976635;28;20042;-86
2023/02/26 11:06:19;;;;;;;12.18;7.90;;;;;;;;;;4979430;28;20322;-86
2023/02/26 11:08:47;;;;;;;9.23;7.10;;;;;;;;;;4978656;28;20423;-86
2023/02/26 11:11:33;;;;;;;10.25;6.93;;;;;;;;;;4973469;28;20023;-85
2023/02/26 11:13:59;;;;;;;7.25;6.10;;;;;;;;;;4978851;28;20150;-85
2023/02/26 11:16:26;;;;;;;11.35;7.43;;;;;;;;;;4971078;28;20455;-85
2023/02/26 11:18:55;;;;;;;12.02;8.10;;;;;;;;;;4979425;28;20038;-85
2023/02/26 11:21:23;;;;;;;15.43;10.65;;;;;;;;;;4979398;28;20027;-86
2023/02/26 11:23:58;;;;;;;13.13;7.68;;;;;;;;;;4979068;28;20050;-86
2023/02/26 11:26:31;;;;;;;16.25;10.07;;;;;;;;;;4978440;28;20117;-86
2023/02/26 11:28:56;;;;;;;;;;;;;;;;;;4979260;28;20042;-86
2023/02/26 11:31:23;;;;;;;15.40;9.65;;;;;;;;;;4978721;28;19981;-85
2023/02/26 11:34:10;;;;;;;24.92;13.63;;;;;;;;;;4956901;28;20034;-85
2023/02/26 11:36:38;;;;;;;24.83;14.25;;;;;;;;;;5046117;28;20041;-86
2023/02/26 11:39:24;;;;;;;20.13;12.98;;;;;;;;;;5059351;28;20032;-86
2023/02/26 11:41:53;;;;;;;14.38;9.77;;;;;;;;;;5058370;28;20039;-85
2023/02/26 11:44:39;;;;;;;11.68;8.57;;;;;;;;;;5057880;28;20037;-84
2023/02/26 11:47:07;;;;;;;11.48;8.70;;;;;;;;;;5059159;28;20021;-87
2023/02/26 11:49:33;;;;;;;13.55;9.73;;;;;;;;;;5058110;28;20021;-86
2023/02/26 11:52:05;;;;;;;13.18;9.18;;;;;;;;;;5057559;28;20061;-86
2023/02/26 11:54:34;;;;;;;15.35;10.82;;;;;;;;;;5085729;28;20056;-84
2023/02/26 11:57:07;;;;;;;12.95;9.57;;;;;;;;;;5081428;28;20122;-87
2023/02/26 11:59:33;;;;;;;16.38;10.32;;;;;;;;;;5081226;28;20027;-86
2023/02/26 12:02:11;;;;;;;15.23;10.82;;;;;;;;;;5099088;28;20066;-86
2023/02/26 12:04:40;;;;;;;15.10;9.75;;;;;;;;;;5098974;28;20023;-87
2023/02/26 12:07:11;;;;;;;14.10;9.10;;;;;;;;;;5099013;28;20020;-86
2023/02/26 12:09:38;;;;;;;12.80;9.30;;;;;;;;;;5097445;28;20035;-87
2023/02/26 12:12:16;;;;;;;16.42;11.55;;;;;;;;;;5097342;28;20414;-87
2023/02/26 12:15:01;;;;;;;16.30;11.02;;;;;;;;;;5098747;28;20336;-87
2023/02/26 12:17:52;;;;;;;13.77;10.02;;;;;;;;;;5096666;28;20031;-87
2023/02/26 12:20:27;;;;;;;24.58;14.60;;;;;;;;;;5099792;28;20035;-86
2023/02/26 12:23:04;;;;;;;26.42;15.82;;;;;;;;;;5098932;28;20120;-87
2023/02/26 12:25:43;;;;;;;30.92;18.40;;;;;;;;;;5080734;28;20441;-88
2023/02/26 12:28:18;;;;;;;39.60;22.42;;;;;;;;;;5098926;28;20020;-88
2023/02/26 12:31:14;;;;;;;30.45;18.65;;;;;;;;;;5099052;28;20024;-86
2023/02/26 12:33:43;;;;;;;26.48;16.77;;;;;;;;;;5110035;28;20040;-85
2023/02/26 12:36:25;;;;;;;22.50;16.33;;;;;;;;;;5098878;28;20027;-88
2023/02/26 12:38:54;;;;;;;20.55;13.82;;;;;;;;;;5099743;28;20609;-87
2023/02/26 12:41:39;;;;;;;18.58;14.02;;;;;;;;;;5098314;28;20093;-86
2023/02/26 12:44:28;;;;;;;20.35;13.43;;;;;;;;;;5097171;28;20020;-87
2023/02/26 12:47:00;;;;;;;17.73;12.32;;;;;;;;;;5078605;28;20046;-86
2023/02/26 12:49:29;;;;;;;16.58;11.73;;;;;;;;;;5078348;28;20029;-86
2023/02/26 12:51:59;;;;;;;18.83;12.30;;;;;;;;;;5072851;28;20034;-86
2023/02/26 12:54:42;;;;;;;14.85;11.05;;;;;;;;;;5097828;28;20055;-85
2023/02/26 12:57:11;;;;;;;20.90;14.20;;;;;;;;;;5098349;28;20020;-86
2023/02/26 12:59:43;;;;;;;23.05;15.18;;;;;;;;;;5098060;28;20085;-87
2023/02/26 13:05:33;;;;;;;18.90;13.10;;;;;;;;;;5082847;28;20035;-86
2023/02/26 13:08:09;;;;;;;21.50;14.85;;;;;;;;;;5079924;28;20028;-87
2023/02/26 13:10:44;;;;;;;23.48;15.48;;;;;;;;;;5080350;28;20081;-87
2023/02/26 13:13:10;;;;;;;25.08;17.17;;;;;;;;;;5098043;28;20024;-86
2023/02/26 13:15:51;;;;;;;21.02;15.55;;;;;;;;;;5080073;28;20028;-87
2023/02/26 13:18:36;;;;;;;27.35;17.63;;;;;;;;;;5079857;28;20032;-86
2023/02/26 13:21:07;;;;;;;16.00;11.95;;;;;;;;;;5080018;28;20440;-87
2023/02/26 13:23:40;;;;;;;22.77;15.88;;;;;;;;;;5079794;28;20078;-86
2023/02/26 13:26:08;;;;;;;21.17;14.88;;;;;;;;;;5097904;28;20028;-86
2023/02/26 13:28:34;;;;;;;20.35;14.77;;;;;;;;;;5097679;28;20024;-86
2023/02/26 13:31:01;;;;;;;19.10;14.02;;;;;;;;;;5079966;28;20074;-86
2023/02/26 13:33:45;;;;;;;19.63;13.02;;;;;;;;;;5098102;28;20047;-86
2023/02/26 13:36:11;;;;;;;20.48;15.50;;;;;;;;;;5097880;28;20020;-86
2023/02/26 13:38:43;;;;;;;21.25;14.32;;;;;;;;;;5098116;28;20032;-87
2023/02/26 13:41:15;;;;;;;17.40;13.38;;;;;;;;;;5079768;28;20036;-87
2023/02/26 13:43:55;;;;;;;19.88;13.65;;;;;;;;;;5097679;28;20433;-86
2023/02/26 13:46:27;;;;;;;20.30;14.63;;;;;;;;;;5097981;28;20065;-87
2023/02/26 13:48:53;;;;;;;20.88;14.85;;;;;;;;;;5079975;28;20021;-88
2023/02/26 13:51:19;;;;;;;20.73;15.02;;;;;;;;;;5079950;28;20024;-88
2023/02/26 13:53:52;;;;;;;19.63;14.35;;;;;;;;;;5097574;28;20044;-87
2023/02/26 13:56:44;;;;;;;19.80;15.30;;;;;;;;;;5097441;28;20024;-87
2023/02/26 13:59:13;;;;;;;19.02;13.10;;;;;;;;;;5030508;28;20129;-86
2023/02/26 14:01:52;;;;;;;17.67;13.43;;;;;;;;;;5029511;28;20079;-88
2023/02/26 14:04:18;;;;;;;19.02;13.93;;;;;;;;;;5031275;28;20124;-86
2023/02/26 14:06:47;;;;;;;20.70;14.10;;;;;;;;;;5034729;28;20564;-87
2023/02/26 14:09:22;;;;;;;18.25;13.32;;;;;;;;;;5033459;28;20029;-88
2023/02/26 14:11:54;;;;;;;17.83;13.82;;;;;;;;;;5019103;28;20304;-86
2023/02/26 14:14:24;;;;;;;17.10;12.63;;;;;;;;;;5035648;28;20060;-86
2023/02/26 14:16:53;;;;;;;17.52;11.68;;;;;;;;;;5035810;28;20037;-88
2023/02/26 14:19:51;;;;;;;15.40;12.25;;;;;;;;;;5035591;28;20043;-85
2023/02/26 14:22:17;;;;;;;15.73;11.60;;;;;;;;;;5018936;28;20045;-89
2023/02/26 14:24:52;;;;;;;15.57;12.05;;;;;;;;;;5035406;28;20048;-86
2023/02/26 14:27:18;;;;;;;19.77;13.90;;;;;;;;;;5038707;28;20017;-87
2023/02/26 14:29:57;;;;;;;28.60;18.90;;;;;;;;;;5039262;28;20064;-87
2023/02/26 14:38:31;;;;;;;25.23;16.48;;;;;;;;;;5081045;28;20023;-86
2023/02/26 14:41:10;;;;;;;30.27;18.25;;;;;;;;;;5063181;28;20085;-86
2023/02/26 14:43:40;;;;;;;24.90;16.33;;;;;;;;;;5063114;28;20021;-89
2023/02/26 14:46:07;;;;;;;27.15;16.65;;;;;;;;;;5063022;28;20028;-90
2023/02/26 14:48:52;;;;;;;27.35;16.50;;;;;;;;;;5082008;28;20399;-85
2023/02/26 14:51:30;;;;;;;22.42;15.05;;;;;;;;;;5082895;28;20066;-86
2023/02/26 14:54:05;;;;;;;24.90;16.17;;;;;;;;;;5082794;28;20059;-86
2023/02/26 14:56:38;;;;;;;24.50;16.80;;;;;;;;;;5082767;28;20020;-89
2023/02/26 14:59:20;;;;;;;21.48;15.27;;;;;;;;;;5100670;28;20059;-87
2023/02/26 15:01:52;;;;;;;20.77;14.70;;;;;;;;;;5082770;28;20081;-85
2023/02/26 15:04:27;;;;;;;18.58;12.95;;;;;;;;;;5098597;28;20028;-87
2023/02/26 15:06:53;;;;;;;16.13;11.80;;;;;;;;;;5082919;28;20031;-88
2023/02/26 15:09:22;;;;;;;14.98;10.93;;;;;;;;;;5100810;28;20020;-88
2023/02/26 15:12:07;;;;;;;14.55;10.95;;;;;;;;;;5100685;28;20306;-87
2023/02/26 15:14:45;;;;;;;15.05;11.27;;;;;;;;;;5100543;28;20069;-87
2023/02/26 15:17:27;;;;;;;15.05;10.80;;;;;;;;;;5086669;28;20040;-87
2023/02/26 15:22:57;;;;;;;13.63;9.63;;;;;;;;;;5080473;28;20035;-87
2023/02/26 15:25:33;;;;;;;12.85;9.30;;;;;;;;;;5062117;28;20133;-88
2023/02/26 15:28:00;;;;;;;16.10;10.50;;;;;;;;;;5080026;28;20107;-87
2023/02/26 15:30:27;;;;;;;13.60;9.88;;;;;;;;;;5080244;28;20040;-88
2023/02/26 15:32:57;;;;;;;18.98;12.02;;;;;;;;;;5080138;28;20021;-88
2023/02/26 15:35:26;;;;;;;17.33;11.38;;;;;;;;;;5079866;28;20031;-87
2023/02/26 15:37:54;;;;;;;29.80;16.45;;;;;;;;;;5097911;28;20040;-88
2023/02/26 15:40:21;;;;;;;23.73;14.55;;;;;;;;;;5100289;28;20020;-88
2023/02/26 15:42:49;;;;;;;24.20;14.00;;;;;;;;;;5100111;28;20414;-87
2023/02/26 15:45:36;;;;;;;20.98;14.07;;;;;;;;;;5100028;28;20410;-88
2023/02/26 15:48:05;;;;;;;23.92;15.40;;;;;;;;;;5100087;28;20024;-87
2023/02/26 15:50:33;;;;;;;25.77;15.52;;;;;;;;;;5099476;28;20020;-87
2023/02/26 15:53:00;;;;;;;29.35;16.80;;;;;;;;;;5099486;28;20322;-88
2023/02/26 15:55:30;;;;;;;34.42;18.83;;;;;;;;;;5099650;28;20383;-88
2023/02/26 15:57:56;;;;;;;30.55;18.15;;;;;;;;;;5098753;28;20045;-88
2023/02/26 16:00:25;;;;;;;27.25;16.58;;;;;;;;;;5098751;28;20334;-88
2023/02/26 16:02:58;;;;;;;22.55;14.50;;;;;;;;;;5098947;28;20024;-89
2023/02/26 16:05:28;;;;;;;22.40;14.55;;;;;;;;;;5098469;28;20436;-88
2023/02/26 16:07:55;;;;;;;22.90;13.95;;;;;;;;;;5099427;28;20115;-86
2023/02/26 16:10:27;;;;;;;18.52;13.45;;;;;;;;;;5099800;28;20070;-88